createdAt,value
2019-01-11T00:02:10.750Z,37.00
2019-01-11T00:05:26.586Z,37.10
2019-01-11T00:08:42.372Z,37.20
2019-01-11T00:11:58.166Z,37.00
2019-01-11T00:15:13.355Z,37.00
2019-01-11T00:18:28.561Z,37.00
2019-01-11T00:21:44.022Z,37.00
2019-01-11T00:25:00.174Z,37.00
2019-01-11T00:28:16.293Z,37.30
2019-01-11T00:31:31.642Z,37.20
2019-01-11T00:34:47.166Z,37.30
2019-01-11T00:38:02.535Z,37.30
2019-01-11T00:41:17.906Z,37.30
2019-01-11T00:44:33.189Z,37.20
2019-01-11T00:47:48.455Z,37.20
2019-01-11T00:51:04.558Z,37.00
2019-01-11T00:54:20.241Z,37.20
2019-01-11T00:57:36.088Z,37.00
2019-01-11T01:00:52.075Z,37.20
2019-01-11T01:04:08.114Z,37.30
2019-01-11T01:07:24.264Z,37.20
2019-01-11T01:10:40.015Z,37.00
2019-01-11T01:17:13.137Z,37.20
2019-01-11T01:20:26.774Z,37.10
2019-01-11T01:23:49.454Z,37.00
2019-01-11T01:27:05.226Z,37.20
2019-01-11T01:30:21.365Z,37.20
2019-01-11T01:33:37.023Z,37.00
2019-01-11T01:36:53.129Z,37.20
2019-01-11T01:40:09.222Z,37.10
2019-01-11T01:43:24.901Z,37.20
2019-01-11T01:46:40.894Z,37.00
2019-01-11T01:49:56.807Z,37.20
2019-01-11T01:53:12.746Z,37.30
2019-01-11T01:56:28.731Z,37.00
2019-01-11T01:59:44.695Z,37.10
2019-01-11T02:03:00.651Z,37.00
2019-01-11T02:06:16.483Z,37.20
2019-01-11T02:09:32.018Z,37.20
2019-01-11T02:12:48.005Z,37.20
2019-01-11T02:16:03.805Z,37.20
2019-01-11T02:19:19.315Z,37.20
2019-01-11T02:22:34.968Z,37.40
2019-01-11T02:25:50.407Z,37.10
2019-01-11T02:29:06.117Z,37.20
2019-01-11T02:32:21.865Z,37.20
2019-01-11T02:35:37.935Z,37.00
2019-01-11T02:38:53.640Z,37.10
2019-01-11T02:42:09.363Z,37.00
2019-01-11T02:45:25.196Z,37.00
2019-01-11T02:48:41.015Z,37.00
2019-01-11T02:51:56.236Z,37.00
2019-01-11T02:55:11.915Z,37.10
2019-01-11T02:58:28.099Z,37.20
2019-01-11T03:01:43.950Z,37.00
2019-01-11T03:04:57.529Z,37.00
2019-01-11T03:08:13.049Z,37.00
2019-01-11T03:11:28.899Z,37.10
2019-01-11T03:14:44.826Z,37.00
2019-01-11T03:18:00.107Z,37.10
2019-01-11T03:21:16.099Z,37.00
2019-01-11T03:24:32.229Z,37.20
2019-01-11T03:27:47.925Z,37.20
2019-01-11T03:31:05.647Z,37.00
2019-01-11T03:38:09.108Z,37.40
2019-01-11T03:41:24.431Z,37.20
2019-01-11T03:44:40.014Z,36.90
2019-01-11T03:47:55.881Z,37.20
2019-01-11T03:51:11.908Z,37.20
2019-01-11T03:54:27.920Z,37.00
2019-01-11T03:57:41.595Z,37.00
2019-01-11T04:01:04.270Z,37.00
2019-01-11T04:04:20.382Z,36.90
2019-01-11T04:07:36.482Z,37.20
2019-01-11T04:10:52.470Z,37.00
2019-01-11T04:14:08.243Z,37.20
2019-01-11T04:17:23.973Z,37.10
2019-01-11T04:20:39.740Z,37.10
2019-01-11T04:23:55.566Z,37.00
2019-01-11T04:27:11.402Z,37.00
2019-01-11T04:30:27.151Z,37.00
2019-01-11T04:33:42.806Z,36.90
2019-01-11T04:36:58.570Z,37.10
2019-01-11T04:40:01.826Z,37.20
2019-01-11T04:43:24.514Z,37.80
2019-01-11T04:46:40.400Z,37.10
2019-01-11T04:49:55.987Z,36.90
2019-01-11T04:53:12.092Z,37.20
2019-01-11T04:56:27.802Z,37.20
2019-01-11T04:59:43.903Z,36.90
2019-01-11T05:02:59.549Z,36.90
2019-01-11T05:06:15.634Z,36.90
2019-01-11T05:09:31.804Z,37.20
2019-01-11T05:12:47.732Z,36.90
2019-01-11T05:16:03.655Z,37.20
2019-01-11T05:19:19.210Z,37.20
2019-01-11T05:22:35.206Z,37.00
2019-01-11T05:25:50.938Z,36.90
2019-01-11T05:29:06.167Z,36.90
2019-01-11T05:32:22.160Z,37.10
2019-01-11T05:35:37.530Z,36.90
2019-01-11T05:38:52.985Z,36.90
2019-01-11T05:42:08.995Z,36.60
2019-01-11T05:45:24.821Z,37.00
2019-01-11T05:48:40.679Z,37.10
2019-01-11T05:51:56.791Z,37.10
2019-01-11T05:55:14.238Z,36.90
2019-01-11T05:58:32.698Z,37.10
2019-01-11T06:01:48.429Z,37.20
2019-01-11T06:05:04.079Z,37.10
2019-01-11T06:08:20.857Z,37.00
2019-01-11T06:11:36.990Z,37.10
2019-01-11T06:14:53.039Z,37.10
2019-01-11T06:18:09.185Z,36.90
2019-01-11T06:21:25.158Z,37.00
2019-01-11T06:24:40.874Z,37.50
2019-01-11T06:27:56.545Z,36.90
2019-01-11T06:31:12.512Z,37.10
2019-01-11T06:34:28.166Z,36.90
2019-01-11T06:37:43.797Z,36.80
2019-01-11T06:40:59.573Z,37.00
2019-01-11T06:44:15.478Z,37.10
2019-01-11T06:47:31.505Z,37.10
2019-01-11T06:50:47.594Z,36.90
2019-01-11T06:54:02.871Z,37.00
2019-01-11T07:00:35.864Z,37.70
2019-01-11T07:03:51.878Z,37.00
2019-01-11T07:07:08.735Z,37.00
2019-01-11T07:10:24.539Z,36.90
2019-01-11T07:13:40.374Z,37.10
2019-01-11T07:16:56.028Z,37.00
2019-01-11T07:20:12.199Z,37.00
2019-01-11T07:23:28.022Z,36.80
2019-01-11T07:26:43.990Z,36.70
2019-01-11T07:29:57.602Z,36.90
2019-01-11T07:36:43.575Z,36.90
2019-01-11T07:39:59.721Z,36.50
2019-01-11T07:43:15.814Z,36.80
2019-01-11T07:46:31.804Z,36.80
2019-01-11T07:49:49.474Z,36.50
2019-01-11T07:53:05.536Z,36.50
2019-01-11T07:56:21.221Z,37.20
2019-01-11T07:59:37.359Z,36.80
2019-01-11T08:02:53.278Z,36.50
2019-01-11T08:06:08.593Z,36.70
2019-01-11T08:09:23.918Z,36.80
2019-01-11T08:12:39.190Z,36.70
2019-01-11T08:15:55.204Z,36.80
2019-01-11T08:19:10.498Z,36.90
2019-01-11T08:22:45.513Z,37.00
2019-01-11T08:26:01.378Z,37.20
2019-01-11T08:29:16.562Z,37.00
2019-01-11T08:32:32.359Z,37.00
2019-01-11T08:35:48.162Z,37.00
2019-01-11T08:39:05.154Z,37.10
2019-01-11T08:42:21.127Z,37.10
2019-01-11T08:45:36.979Z,37.10
2019-01-11T08:48:53.107Z,37.10
2019-01-11T08:52:08.941Z,37.20
2019-01-11T08:55:25.014Z,37.10
2019-01-11T08:58:42.898Z,37.10
2019-01-11T09:08:27.969Z,37.10
2019-01-11T09:11:50.655Z,37.30
2019-01-11T09:15:13.365Z,37.30
2019-01-11T09:18:30.855Z,37.10
2019-01-11T09:21:46.859Z,37.60
2019-01-11T09:25:02.894Z,37.20
2019-01-11T09:28:18.839Z,37.00
2019-01-11T09:31:34.116Z,37.30
2019-01-11T09:34:47.771Z,37.20
2019-01-11T09:38:10.476Z,37.20
2019-01-11T09:41:26.057Z,37.30
2019-01-11T09:44:42.024Z,37.30
2019-01-11T09:47:57.986Z,37.00
2019-01-11T09:51:15.763Z,37.00
2019-01-11T09:54:30.542Z,37.00
2019-01-11T09:57:45.888Z,37.30
2019-01-11T10:01:01.939Z,37.30
2019-01-11T10:04:19.439Z,37.30
2019-01-11T10:07:34.938Z,37.10
2019-01-11T10:10:50.322Z,37.10
2019-01-11T10:14:06.251Z,37.10
2019-01-11T10:17:22.327Z,37.40
2019-01-11T10:20:38.267Z,37.30
2019-01-11T10:23:54.339Z,37.10
2019-01-11T10:27:07.998Z,37.40
2019-01-11T10:30:30.691Z,37.10
2019-01-11T10:33:46.627Z,37.30
2019-01-11T10:37:02.529Z,37.10
2019-01-11T10:40:18.558Z,37.10
2019-01-11T10:43:34.442Z,37.40
2019-01-11T10:46:50.362Z,37.10
2019-01-11T10:50:06.245Z,37.10
2019-01-11T10:53:22.025Z,37.20
2019-01-11T10:56:38.250Z,37.10
2019-01-11T10:59:54.143Z,37.00
2019-01-11T11:03:09.411Z,37.20
2019-01-11T11:06:24.720Z,37.00
2019-01-11T11:09:40.717Z,37.20
2019-01-11T11:12:54.343Z,37.10
2019-01-11T11:16:09.707Z,37.60
2019-01-11T11:19:25.518Z,37.30
2019-01-11T11:22:41.755Z,37.20
2019-01-11T11:25:57.816Z,37.10
2019-01-11T11:29:13.983Z,37.10
2019-01-11T11:32:30.773Z,37.10
2019-01-11T11:35:46.159Z,37.20
2019-01-11T11:39:02.240Z,37.00
2019-01-11T11:42:18.214Z,37.20
2019-01-11T11:45:34.377Z,37.00
2019-01-11T11:48:50.286Z,36.90
2019-01-11T11:52:06.319Z,37.00
2019-01-11T11:55:22.199Z,37.20
2019-01-11T11:58:38.186Z,37.30
2019-01-11T12:01:53.356Z,37.40
2019-01-11T12:05:09.178Z,37.20
2019-01-11T12:08:24.377Z,37.30
2019-01-11T12:11:40.323Z,37.40
2019-01-11T12:14:56.055Z,37.50
2019-01-11T12:18:11.249Z,37.40
2019-01-11T12:21:27.199Z,37.60
2019-01-11T12:24:42.422Z,37.40
2019-01-11T12:27:57.694Z,37.40
2019-01-11T12:31:13.857Z,37.30
2019-01-11T12:34:30.092Z,37.50
2019-01-11T12:37:46.069Z,37.40
2019-01-11T12:41:01.814Z,37.50
2019-01-11T12:44:17.053Z,37.40
2019-01-11T12:47:32.723Z,37.30
2019-01-11T12:50:48.539Z,37.20
2019-01-11T12:54:04.608Z,37.30
2019-01-11T12:57:19.766Z,37.20
2019-01-11T13:00:35.535Z,37.40
2019-01-11T13:03:51.642Z,37.40
2019-01-11T13:07:07.314Z,37.30
2019-01-11T13:10:23.241Z,37.50
2019-01-11T13:13:39.371Z,37.30
2019-01-11T13:16:54.527Z,37.50
2019-01-11T13:20:10.515Z,37.50
2019-01-11T13:23:26.681Z,37.50
2019-01-11T13:26:42.233Z,37.50
2019-01-11T13:29:58.209Z,37.30
2019-01-11T13:33:14.171Z,37.30
2019-01-11T13:36:28.288Z,37.50
2019-01-11T13:39:51.018Z,37.60
2019-01-11T13:43:06.421Z,37.60
2019-01-11T13:46:09.698Z,37.50
2019-01-11T13:49:32.399Z,37.60
2019-01-11T13:52:48.371Z,37.60
2019-01-11T13:56:04.326Z,37.50
2019-01-11T13:59:19.759Z,37.50
2019-01-11T14:02:35.650Z,37.50
2019-01-11T14:05:51.323Z,37.60
2019-01-11T14:09:07.358Z,37.70
2019-01-11T14:12:23.432Z,37.50
2019-01-11T14:15:38.732Z,37.70
2019-01-11T14:18:54.872Z,37.60
2019-01-11T14:22:13.736Z,37.70
2019-01-11T14:25:27.442Z,37.50
2019-01-11T14:28:43.128Z,37.60
2019-01-11T14:31:58.391Z,37.40
2019-01-11T14:35:14.457Z,37.60
2019-01-11T14:38:30.271Z,37.50
2019-01-11T14:41:46.232Z,37.50
2019-01-11T14:45:01.944Z,37.60
2019-01-11T14:48:17.173Z,37.50
2019-01-11T14:51:32.979Z,38.00
2019-01-11T14:54:48.975Z,37.40
2019-01-11T14:58:04.691Z,37.40
2019-01-11T15:01:20.042Z,37.40
2019-01-11T15:04:35.578Z,37.50
2019-01-11T15:07:51.410Z,37.50
2019-01-11T15:11:07.123Z,37.40
2019-01-11T15:14:22.887Z,37.50
2019-01-11T15:17:38.113Z,37.40
2019-01-11T15:20:51.809Z,37.40
2019-01-11T15:24:07.474Z,37.50
2019-01-11T15:27:22.765Z,37.40
2019-01-11T15:30:37.972Z,37.60
2019-01-11T15:33:54.098Z,37.40
2019-01-11T15:37:09.421Z,37.50
2019-01-11T15:40:25.967Z,37.40
2019-01-11T15:43:41.292Z,37.60
2019-01-11T15:46:57.127Z,37.60
2019-01-11T15:50:13.287Z,37.30
2019-01-11T15:53:30.967Z,37.60
2019-01-11T15:56:46.954Z,37.30
2019-01-11T16:00:02.609Z,37.40
2019-01-11T16:03:18.402Z,37.40
2019-01-11T16:06:34.459Z,37.20
2019-01-11T16:09:56.169Z,37.50
2019-01-11T16:13:12.317Z,38.00
2019-01-11T16:16:28.323Z,37.30
2019-01-11T16:19:44.399Z,37.30
2019-01-11T16:23:00.154Z,37.60
2019-01-11T16:26:16.327Z,37.50
2019-01-11T16:29:31.937Z,37.40
2019-01-11T16:32:47.969Z,37.60
2019-01-11T16:36:04.016Z,37.40
2019-01-11T16:39:20.139Z,37.40
2019-01-11T16:42:38.672Z,37.50
2019-01-11T16:45:52.566Z,37.30
2019-01-11T16:48:55.822Z,37.60
2019-01-11T16:52:18.511Z,37.60
2019-01-11T16:55:23.831Z,37.40
2019-01-11T16:58:46.518Z,37.70
2019-01-11T17:02:09.221Z,37.60
2019-01-11T17:05:24.633Z,37.50
2019-01-11T17:08:40.057Z,37.50
2019-01-11T17:11:55.924Z,37.50
2019-01-11T17:15:11.973Z,37.70
2019-01-11T17:18:15.220Z,37.60
2019-01-11T17:21:37.906Z,37.70
2019-01-11T17:24:53.186Z,37.70
2019-01-11T17:28:08.460Z,37.60
2019-01-11T17:31:23.843Z,37.50
2019-01-11T17:34:40.003Z,37.50
2019-01-11T17:37:56.134Z,37.50
2019-01-11T17:41:12.139Z,37.50
2019-01-11T17:44:28.135Z,37.30
2019-01-11T17:47:43.534Z,37.30
2019-01-11T17:50:58.791Z,37.20
2019-01-11T17:54:12.355Z,37.10
2019-01-11T17:57:35.053Z,37.30
2019-01-11T18:00:51.111Z,37.20
2019-01-11T18:04:06.326Z,37.20
2019-01-11T18:07:22.362Z,37.30
2019-01-11T18:10:38.211Z,37.30
2019-01-11T18:13:53.481Z,37.10
2019-01-11T18:17:08.648Z,37.30
2019-01-11T18:20:24.643Z,37.50
2019-01-11T18:23:40.422Z,37.70
2019-01-11T18:26:54.139Z,37.60
2019-01-11T18:30:09.312Z,37.60
2019-01-11T18:33:25.284Z,37.90
2019-01-11T18:36:41.203Z,37.90
2019-01-11T18:39:57.865Z,37.90
2019-01-11T18:43:13.894Z,37.70
2019-01-11T18:46:29.974Z,37.90
2019-01-11T18:49:45.939Z,37.90
2019-01-11T18:53:01.663Z,37.70
2019-01-11T18:56:17.825Z,37.90
2019-01-11T18:59:33.907Z,37.90
2019-01-11T19:06:06.434Z,37.90
2019-01-11T19:09:21.839Z,37.70
2019-01-11T19:12:37.718Z,37.80
2019-01-11T19:15:53.724Z,37.80
2019-01-11T19:19:09.058Z,37.60
2019-01-11T19:22:24.384Z,37.60
2019-01-11T19:25:39.749Z,37.80
2019-01-11T19:28:55.787Z,37.80
2019-01-11T19:32:09.404Z,37.80
2019-01-11T19:35:32.169Z,37.80
2019-01-11T19:38:48.085Z,37.60
2019-01-11T19:42:04.097Z,37.60
2019-01-11T19:45:19.962Z,37.30
2019-01-11T19:48:35.416Z,37.90
2019-01-11T19:51:50.750Z,37.90
2019-01-11T19:55:06.799Z,37.90
2019-01-11T19:58:22.204Z,37.80
2019-01-11T20:01:37.446Z,37.60
2019-01-11T20:04:53.506Z,37.80
2019-01-11T20:08:09.608Z,37.80
2019-01-11T20:11:25.513Z,37.80
2019-01-11T20:14:40.790Z,37.80
2019-01-11T20:17:56.021Z,37.70
2019-01-11T20:21:11.243Z,37.50
2019-01-11T20:24:26.627Z,37.60
2019-01-11T20:27:41.826Z,37.80
2019-01-11T20:30:57.866Z,37.70
2019-01-11T20:34:13.700Z,37.50
2019-01-11T20:37:28.998Z,37.80
2019-01-11T20:40:44.934Z,37.50
2019-01-11T20:44:00.442Z,37.70
2019-01-11T20:47:16.278Z,37.70
2019-01-11T20:50:29.871Z,37.50
2019-01-11T20:53:52.545Z,37.50
2019-01-11T20:57:08.291Z,37.70
2019-01-11T21:00:23.749Z,37.50
2019-01-11T21:03:39.678Z,37.50
2019-01-11T21:06:54.964Z,37.60
2019-01-11T21:10:10.798Z,37.50
2019-01-11T21:13:26.225Z,37.70
2019-01-11T21:16:41.494Z,37.60
2019-01-11T21:19:57.062Z,37.50
2019-01-11T21:23:13.204Z,37.60
2019-01-11T21:26:28.495Z,37.60
2019-01-11T21:29:44.323Z,37.50
2019-01-11T21:32:59.591Z,37.70
2019-01-11T21:36:15.645Z,37.70
2019-01-11T21:39:31.495Z,37.50
2019-01-11T21:42:34.781Z,38.00
2019-01-11T21:45:49.970Z,37.70
2019-01-11T21:49:05.303Z,37.60
2019-01-11T21:52:20.694Z,37.50
2019-01-11T21:55:36.694Z,37.70
2019-01-11T21:58:50.299Z,37.70
2019-01-11T22:02:13.144Z,37.70
2019-01-11T22:05:30.287Z,37.40
2019-01-11T22:08:46.438Z,37.70
2019-01-11T22:12:02.357Z,37.50
2019-01-11T22:15:18.268Z,37.50
2019-01-11T22:18:34.162Z,37.70
2019-01-11T22:21:47.814Z,37.40
2019-01-11T22:25:03.310Z,37.70
2019-01-11T22:28:16.889Z,37.50
2019-01-11T22:35:15.482Z,37.50
2019-01-11T22:38:31.639Z,37.50
2019-01-11T22:41:46.814Z,37.50
2019-01-11T22:45:02.826Z,37.70
2019-01-11T22:48:18.184Z,37.60
2019-01-11T22:51:33.409Z,37.50
2019-01-11T22:54:48.782Z,37.30
2019-01-11T22:58:04.649Z,37.30
2019-01-11T23:01:20.434Z,37.20
2019-01-11T23:04:36.302Z,37.40
2019-01-11T23:07:52.289Z,37.30
2019-01-11T23:11:08.062Z,37.50
2019-01-11T23:14:24.023Z,37.40
2019-01-11T23:17:39.238Z,37.20
2019-01-11T23:20:55.296Z,37.40
2019-01-11T23:24:17.180Z,37.40
2019-01-11T23:27:28.370Z,37.20
2019-01-11T23:30:43.618Z,37.20
2019-01-11T23:33:59.798Z,37.20
2019-01-11T23:37:15.844Z,37.10
2019-01-11T23:40:31.915Z,37.10
2019-01-11T23:43:47.861Z,37.20
2019-01-11T23:47:01.456Z,37.20
2019-01-11T23:50:17.025Z,37.40
2019-01-11T23:53:32.250Z,37.20
2019-01-11T23:56:48.323Z,37.20
